Time;durP1;ratioP1;P1;durP2;ratioP2;P2;SDS_P1;SDS_P2;PMS_P1;PMS_P2;Temp;Humidity;BMP_temperature;BMP_pressure;BME280_temperature;BME280_humidity;BME280_pressure;Samples;Min_cycle;Max_cycle;Signal;HPM_P1;HPM_P2
2022/11/21 00:00:59;;;;;;;16.38;12.60;;;;;;;;;;5093675;28;20670;-60
2022/11/21 00:03:26;;;;;;;17.85;12.00;;;;;;;;;;5093559;28;20704;-60
2022/11/21 00:05:53;;;;;;;18.27;12.05;;;;;;;;;;5093164;28;20201;-60
2022/11/21 00:08:21;;;;;;;15.13;11.18;;;;;;;;;;5093270;28;20196;-60
2022/11/21 00:10:48;;;;;;;18.00;12.73;;;;;;;;;;5093535;28;20232;-61
2022/11/21 00:13:16;;;;;;;17.23;11.70;;;;;;;;;;5093045;28;20224;-61
2022/11/21 00:15:45;;;;;;;17.27;12.82;;;;;;;;;;5093374;28;20614;-61
2022/11/21 00:18:12;;;;;;;18.65;12.50;;;;;;;;;;5093241;28;20224;-61
2022/11/21 00:20:39;;;;;;;18.88;13.02;;;;;;;;;;5093026;28;20193;-61
2022/11/21 00:23:06;;;;;;;20.02;13.80;;;;;;;;;;5093100;28;20228;-61
2022/11/21 00:25:34;;;;;;;18.23;13.00;;;;;;;;;;5093096;28;20185;-61
2022/11/21 00:28:01;;;;;;;25.25;14.48;;;;;;;;;;5092996;28;20219;-61
2022/11/21 00:30:28;;;;;;;19.00;12.07;;;;;;;;;;5092925;28;20305;-61
2022/11/21 00:32:58;;;;;;;17.25;11.60;;;;;;;;;;5093150;28;20220;-60
2022/11/21 00:35:25;;;;;;;18.10;11.95;;;;;;;;;;5092996;28;20595;-60
2022/11/21 00:37:53;;;;;;;16.13;11.75;;;;;;;;;;5092863;28;20636;-60
2022/11/21 00:40:20;;;;;;;16.98;11.80;;;;;;;;;;5092860;28;20223;-60
2022/11/21 00:42:47;;;;;;;15.48;11.50;;;;;;;;;;5093072;28;20193;-60
2022/11/21 00:45:14;;;;;;;19.30;13.10;;;;;;;;;;5092996;28;20246;-60
2022/11/21 00:47:41;;;;;;;17.85;13.20;;;;;;;;;;5093020;28;20217;-60
2022/11/21 00:50:10;;;;;;;17.70;12.43;;;;;;;;;;5092878;28;20194;-60
2022/11/21 00:52:37;;;;;;;17.05;11.95;;;;;;;;;;5093848;28;20213;-60
2022/11/21 00:55:04;;;;;;;19.25;12.75;;;;;;;;;;5096685;28;20200;-60
2022/11/21 00:57:31;;;;;;;15.95;11.98;;;;;;;;;;5096985;28;20221;-61
2022/11/21 00:59:58;;;;;;;16.55;11.50;;;;;;;;;;5096661;28;20652;-61
2022/11/21 01:02:25;;;;;;;17.40;12.48;;;;;;;;;;5096651;28;20190;-61
2022/11/21 01:04:53;;;;;;;16.95;11.75;;;;;;;;;;5096724;28;20223;-61
2022/11/21 01:07:21;;;;;;;17.38;11.80;;;;;;;;;;5096589;28;20197;-60
2022/11/21 01:09:48;;;;;;;18.40;12.65;;;;;;;;;;5096758;28;20259;-60
2022/11/21 01:12:15;;;;;;;19.42;12.60;;;;;;;;;;5096673;28;20625;-61
2022/11/21 01:14:42;;;;;;;18.85;12.32;;;;;;;;;;5096587;28;20228;-61
2022/11/21 01:17:09;;;;;;;17.88;12.63;;;;;;;;;;5096265;28;20197;-61
2022/11/21 01:19:36;;;;;;;15.25;12.02;;;;;;;;;;5096443;28;20204;-61
2022/11/21 01:22:04;;;;;;;17.35;11.82;;;;;;;;;;5096256;28;20652;-61
2022/11/21 01:24:32;;;;;;;16.50;11.50;;;;;;;;;;5096642;28;20194;-61
2022/11/21 01:26:59;;;;;;;19.48;12.32;;;;;;;;;;5096749;28;20692;-61
2022/11/21 01:29:27;;;;;;;17.05;11.65;;;;;;;;;;5096151;28;20229;-61
2022/11/21 01:31:54;;;;;;;14.98;10.57;;;;;;;;;;5096105;28;20235;-65
2022/11/21 01:34:22;;;;;;;16.17;11.45;;;;;;;;;;5096000;28;20646;-62
2022/11/21 01:36:49;;;;;;;15.30;11.38;;;;;;;;;;5095913;28;20192;-61
2022/11/21 01:39:16;;;;;;;15.48;10.50;;;;;;;;;;5096357;28;20284;-61
2022/11/21 01:41:45;;;;;;;19.48;11.93;;;;;;;;;;5096130;28;20185;-61
2022/11/21 01:44:16;;;;;;;16.50;12.02;;;;;;;;;;5095954;28;20188;-61
2022/11/21 01:46:43;;;;;;;15.63;11.50;;;;;;;;;;5095743;28;20264;-61
2022/11/21 01:49:11;;;;;;;18.20;12.40;;;;;;;;;;5095674;28;20280;-61
2022/11/21 01:51:41;;;;;;;24.80;15.13;;;;;;;;;;5095817;28;20189;-61
2022/11/21 01:54:12;;;;;;;22.35;12.90;;;;;;;;;;5095828;28;20818;-61
2022/11/21 01:56:41;;;;;;;20.50;13.07;;;;;;;;;;5095732;28;20224;-61
2022/11/21 01:59:12;;;;;;;18.35;12.68;;;;;;;;;;5095451;28;20200;-61
2022/11/21 02:01:39;;;;;;;18.42;12.40;;;;;;;;;;5095455;28;20190;-61
2022/11/21 02:04:06;;;;;;;18.13;12.85;;;;;;;;;;5094322;28;20250;-61
2022/11/21 02:06:36;;;;;;;19.33;12.15;;;;;;;;;;5095415;28;20185;-61
2022/11/21 02:09:03;;;;;;;21.25;12.50;;;;;;;;;;5095337;28;20193;-60
2022/11/21 02:11:33;;;;;;;18.35;11.95;;;;;;;;;;5095446;28;20219;-60
2022/11/21 02:14:00;;;;;;;20.25;12.82;;;;;;;;;;5095159;28;20216;-61
2022/11/21 02:16:29;;;;;;;17.35;11.93;;;;;;;;;;5095182;28;20193;-61
2022/11/21 02:18:56;;;;;;;17.25;12.25;;;;;;;;;;5095368;28;20266;-61
2022/11/21 02:21:30;;;;;;;19.70;11.73;;;;;;;;;;5095060;28;20196;-61
2022/11/21 02:24:01;;;;;;;17.70;12.77;;;;;;;;;;5095263;28;20671;-61
2022/11/21 02:26:29;;;;;;;19.50;12.85;;;;;;;;;;5095057;28;20262;-61
2022/11/21 02:28:57;;;;;;;20.88;13.23;;;;;;;;;;5094910;28;20533;-61
2022/11/21 02:31:24;;;;;;;20.40;13.30;;;;;;;;;;5095084;28;20193;-61
2022/11/21 02:33:51;;;;;;;18.90;11.32;;;;;;;;;;5094994;28;20270;-61
2022/11/21 02:36:39;;;;;;;18.88;12.63;;;;;;;;;;5094946;28;20204;-61
2022/11/21 02:39:07;;;;;;;19.50;12.20;;;;;;;;;;5094738;28;20192;-61
2022/11/21 02:41:38;;;;;;;19.52;12.73;;;;;;;;;;5095023;28;20242;-61
2022/11/21 02:44:07;;;;;;;21.38;14.02;;;;;;;;;;5094641;28;20693;-61
2022/11/21 02:46:35;;;;;;;17.33;13.25;;;;;;;;;;5094558;28;20214;-61
2022/11/21 02:49:05;;;;;;;18.90;12.80;;;;;;;;;;5094716;28;20556;-61
2022/11/21 02:51:32;;;;;;;20.58;12.90;;;;;;;;;;5094464;28;20185;-61
2022/11/21 02:53:59;;;;;;;19.35;12.98;;;;;;;;;;5094274;28;20225;-61
2022/11/21 02:56:26;;;;;;;17.80;12.27;;;;;;;;;;5094547;28;20189;-61
2022/11/21 02:58:54;;;;;;;19.35;13.13;;;;;;;;;;5094523;28;20187;-61
2022/11/21 03:01:22;;;;;;;18.13;13.15;;;;;;;;;;5094307;28;20195;-61
2022/11/21 03:03:49;;;;;;;18.95;13.32;;;;;;;;;;5094309;28;20197;-61
2022/11/21 03:06:16;;;;;;;18.92;12.60;;;;;;;;;;5094353;28;20221;-61
2022/11/21 03:08:43;;;;;;;17.35;12.52;;;;;;;;;;5094465;28;20547;-61
2022/11/21 03:11:10;;;;;;;17.48;12.85;;;;;;;;;;5094202;28;20189;-61
2022/11/21 03:13:37;;;;;;;18.48;12.77;;;;;;;;;;5094206;28;20702;-61
2022/11/21 03:16:06;;;;;;;20.30;13.05;;;;;;;;;;5093570;28;20652;-61
2022/11/21 03:18:33;;;;;;;17.27;12.23;;;;;;;;;;5094038;28;20196;-61
2022/11/21 03:21:00;;;;;;;17.83;11.90;;;;;;;;;;5093910;28;20262;-61
2022/11/21 03:23:28;;;;;;;16.73;11.70;;;;;;;;;;5094110;28;20192;-61
2022/11/21 03:25:55;;;;;;;18.85;12.70;;;;;;;;;;5094194;28;20189;-61
2022/11/21 03:28:22;;;;;;;18.67;12.13;;;;;;;;;;5094080;28;20184;-61
2022/11/21 03:30:49;;;;;;;21.17;13.40;;;;;;;;;;5093798;28;20655;-61
2022/11/21 03:33:18;;;;;;;16.75;12.98;;;;;;;;;;5093732;28;20266;-61
2022/11/21 03:35:45;;;;;;;18.95;12.80;;;;;;;;;;5094131;28;20276;-61
2022/11/21 03:38:12;;;;;;;20.17;13.57;;;;;;;;;;5094005;28;20184;-61
2022/11/21 03:40:39;;;;;;;20.45;13.05;;;;;;;;;;5093597;28;20191;-61
2022/11/21 03:43:06;;;;;;;19.13;12.77;;;;;;;;;;5093832;28;20190;-61
2022/11/21 03:45:34;;;;;;;18.40;13.07;;;;;;;;;;5093705;28;20671;-61
2022/11/21 03:48:01;;;;;;;18.58;12.93;;;;;;;;;;5093393;28;20307;-61
2022/11/21 03:50:30;;;;;;;16.67;11.90;;;;;;;;;;5093564;28;20189;-61
2022/11/21 03:52:57;;;;;;;18.33;12.65;;;;;;;;;;5093739;28;20260;-61
2022/11/21 03:55:24;;;;;;;17.77;12.15;;;;;;;;;;5093360;28;20685;-61
2022/11/21 03:57:51;;;;;;;17.55;13.10;;;;;;;;;;5093515;28;20193;-61
2022/11/21 04:00:18;;;;;;;18.90;13.05;;;;;;;;;;5093186;28;20235;-61
2022/11/21 04:02:46;;;;;;;20.13;12.55;;;;;;;;;;5093438;28;20192;-61
2022/11/21 04:05:13;;;;;;;19.92;12.80;;;;;;;;;;5093723;28;20190;-61
2022/11/21 04:07:41;;;;;;;20.23;12.45;;;;;;;;;;5093182;28;20196;-61
2022/11/21 04:10:11;;;;;;;18.60;13.50;;;;;;;;;;5093218;28;20192;-61
2022/11/21 04:12:38;;;;;;;18.75;13.10;;;;;;;;;;5093192;28;20305;-61
2022/11/21 04:15:06;;;;;;;19.55;13.80;;;;;;;;;;5093295;28;20204;-61
2022/11/21 04:17:33;;;;;;;20.30;12.63;;;;;;;;;;5093355;28;20189;-61
2022/11/21 04:20:00;;;;;;;19.92;13.52;;;;;;;;;;5093053;28;20715;-60
2022/11/21 04:22:27;;;;;;;20.38;13.68;;;;;;;;;;5093209;28;20247;-60
2022/11/21 04:24:56;;;;;;;18.67;12.95;;;;;;;;;;5093099;28;20553;-60
2022/11/21 04:27:23;;;;;;;19.55;12.35;;;;;;;;;;5092162;28;20193;-60
2022/11/21 04:29:50;;;;;;;19.08;13.38;;;;;;;;;;5093012;28;20655;-60
2022/11/21 04:32:17;;;;;;;21.67;14.98;;;;;;;;;;5093064;28;20713;-62
2022/11/21 04:34:44;;;;;;;19.40;12.85;;;;;;;;;;5092895;28;20225;-61
2022/11/21 04:37:11;;;;;;;20.55;14.02;;;;;;;;;;5092810;28;20189;-60
2022/11/21 04:39:38;;;;;;;18.45;13.48;;;;;;;;;;5093031;28;20190;-60
2022/11/21 04:42:07;;;;;;;19.48;13.25;;;;;;;;;;5092837;28;20277;-60
2022/11/21 04:44:34;;;;;;;23.00;12.82;;;;;;;;;;5092910;28;20632;-60
2022/11/21 04:47:01;;;;;;;17.98;12.95;;;;;;;;;;5092950;28;20247;-60
2022/11/21 04:49:28;;;;;;;19.27;12.88;;;;;;;;;;5092874;28;20200;-60
2022/11/21 04:51:55;;;;;;;18.50;13.32;;;;;;;;;;5092663;28;20637;-61
2022/11/21 04:54:23;;;;;;;17.77;13.13;;;;;;;;;;5092668;28;20217;-61
2022/11/21 04:56:50;;;;;;;20.85;14.52;;;;;;;;;;5092912;28;20641;-61
2022/11/21 04:59:18;;;;;;;19.33;12.02;;;;;;;;;;5092670;28;20251;-61
2022/11/21 05:01:45;;;;;;;22.92;14.02;;;;;;;;;;5092799;28;20277;-60
2022/11/21 05:04:13;;;;;;;20.10;14.43;;;;;;;;;;5092844;28;20199;-60
2022/11/21 05:06:40;;;;;;;21.98;14.15;;;;;;;;;;5092665;28;20194;-60
2022/11/21 05:09:07;;;;;;;24.13;14.80;;;;;;;;;;5092521;28;20588;-60
2022/11/21 05:14:20;;;;;;;21.48;14.70;;;;;;;;;;5092559;28;20291;-61
2022/11/21 05:16:47;;;;;;;23.15;15.35;;;;;;;;;;5092729;28;20580;-60
2022/11/21 05:19:14;;;;;;;21.50;14.75;;;;;;;;;;5092412;28;20192;-60
2022/11/21 05:21:42;;;;;;;20.55;14.98;;;;;;;;;;5092535;28;20607;-62
2022/11/21 05:24:09;;;;;;;18.98;13.48;;;;;;;;;;5092319;28;20653;-60
2022/11/21 05:26:37;;;;;;;21.58;15.30;;;;;;;;;;5092618;28;20218;-60
2022/11/21 05:29:06;;;;;;;20.92;14.40;;;;;;;;;;5092367;28;20225;-60
2022/11/21 05:31:34;;;;;;;19.92;12.75;;;;;;;;;;5092412;28;20190;-60
2022/11/21 05:34:01;;;;;;;19.38;13.45;;;;;;;;;;5092282;28;20617;-61
2022/11/21 05:36:29;;;;;;;22.92;14.95;;;;;;;;;;5092555;28;20225;-61
2022/11/21 05:38:56;;;;;;;22.67;14.90;;;;;;;;;;5093849;28;20268;-61
2022/11/21 05:41:23;;;;;;;20.45;13.15;;;;;;;;;;5095820;28;20702;-61
2022/11/21 05:43:49;;;;;;;17.67;12.70;;;;;;;;;;5096033;28;20200;-60
2022/11/21 05:46:17;;;;;;;19.45;12.20;;;;;;;;;;5095734;28;20200;-61
2022/11/21 05:48:46;;;;;;;20.10;13.35;;;;;;;;;;5095735;28;20291;-61
2022/11/21 05:51:14;;;;;;;23.90;14.63;;;;;;;;;;5095896;28;20186;-61
2022/11/21 05:53:41;;;;;;;20.42;13.75;;;;;;;;;;5095614;28;20229;-61
2022/11/21 05:56:09;;;;;;;19.80;13.73;;;;;;;;;;5096076;28;20228;-62
2022/11/21 05:58:37;;;;;;;16.70;12.23;;;;;;;;;;5095775;28;20185;-62
2022/11/21 06:01:05;;;;;;;19.10;13.45;;;;;;;;;;5095606;28;20236;-62
2022/11/21 06:03:32;;;;;;;19.02;13.68;;;;;;;;;;5095622;28;20229;-62
2022/11/21 06:06:02;;;;;;;16.42;11.65;;;;;;;;;;5095342;28;20647;-61
2022/11/21 06:08:29;;;;;;;17.63;12.70;;;;;;;;;;5095657;28;20227;-61
2022/11/21 06:10:56;;;;;;;26.05;17.88;;;;;;;;;;5095194;28;20205;-61
2022/11/21 06:13:23;;;;;;;19.88;13.07;;;;;;;;;;5095357;28;20248;-61
2022/11/21 06:15:58;;;;;;;17.60;12.65;;;;;;;;;;5095149;28;20680;-61
2022/11/21 06:18:25;;;;;;;23.10;14.15;;;;;;;;;;5095406;28;20251;-61
2022/11/21 06:21:00;;;;;;;23.02;14.57;;;;;;;;;;5095214;28;20186;-61
2022/11/21 06:23:28;;;;;;;20.25;13.38;;;;;;;;;;5095246;28;20189;-61
2022/11/21 06:25:57;;;;;;;19.33;12.75;;;;;;;;;;5095203;28;20221;-61
2022/11/21 06:28:25;;;;;;;23.35;12.82;;;;;;;;;;5094895;28;20225;-62
2022/11/21 06:30:52;;;;;;;19.15;12.25;;;;;;;;;;5094857;28;20211;-62
2022/11/21 06:33:19;;;;;;;19.83;13.35;;;;;;;;;;5094634;28;20189;-62
2022/11/21 06:35:46;;;;;;;21.30;14.63;;;;;;;;;;5094876;28;20190;-61
2022/11/21 06:38:17;;;;;;;18.23;13.90;;;;;;;;;;5094715;28;20275;-61
2022/11/21 06:40:46;;;;;;;21.23;13.93;;;;;;;;;;5094940;28;20224;-62
2022/11/21 06:43:13;;;;;;;20.63;14.02;;;;;;;;;;5094900;28;20192;-62
2022/11/21 06:45:40;;;;;;;23.70;14.52;;;;;;;;;;5094569;28;20195;-61
2022/11/21 06:48:08;;;;;;;22.60;14.43;;;;;;;;;;5094590;28;20221;-61
2022/11/21 06:50:35;;;;;;;21.98;14.10;;;;;;;;;;5093657;28;20200;-61
2022/11/21 06:53:02;;;;;;;17.63;12.68;;;;;;;;;;5094621;28;20195;-61
2022/11/21 06:55:29;;;;;;;22.63;14.57;;;;;;;;;;5094300;28;20221;-61
2022/11/21 06:57:59;;;;;;;18.42;13.07;;;;;;;;;;5094621;28;20531;-61
2022/11/21 07:00:26;;;;;;;21.55;13.45;;;;;;;;;;5094562;28;20594;-62
2022/11/21 07:02:53;;;;;;;21.27;13.55;;;;;;;;;;5094430;28;20216;-61
2022/11/21 07:05:21;;;;;;;21.48;14.65;;;;;;;;;;5094309;28;20193;-62
2022/11/21 07:07:48;;;;;;;19.42;13.13;;;;;;;;;;5094119;28;20184;-62
2022/11/21 07:10:15;;;;;;;20.30;13.85;;;;;;;;;;5094233;28;20228;-60
2022/11/21 07:15:28;;;;;;;28.20;14.55;;;;;;;;;;5094194;28;20223;-61
2022/11/21 07:17:58;;;;;;;19.75;13.98;;;;;;;;;;5094033;28;20249;-60
2022/11/21 07:20:26;;;;;;;20.73;14.23;;;;;;;;;;5093979;28;20193;-61
2022/11/21 07:22:54;;;;;;;20.58;14.60;;;;;;;;;;5093934;28;20194;-61
2022/11/21 07:25:21;;;;;;;20.23;13.70;;;;;;;;;;5094090;28;20637;-61
2022/11/21 07:27:49;;;;;;;17.77;13.20;;;;;;;;;;5094076;28;20190;-61
2022/11/21 07:30:16;;;;;;;24.65;15.15;;;;;;;;;;5093636;28;20242;-61
2022/11/21 07:32:45;;;;;;;24.42;15.93;;;;;;;;;;5093743;28;20236;-61
2022/11/21 07:35:12;;;;;;;18.55;14.50;;;;;;;;;;5093679;28;20224;-61
2022/11/21 07:37:39;;;;;;;20.95;14.70;;;;;;;;;;5094065;28;20200;-61
2022/11/21 07:40:07;;;;;;;18.48;13.80;;;;;;;;;;5093839;28;20193;-61
2022/11/21 07:42:34;;;;;;;21.20;14.30;;;;;;;;;;5093780;28;20199;-61
2022/11/21 07:45:02;;;;;;;20.98;15.02;;;;;;;;;;5093751;28;20190;-61
2022/11/21 07:47:30;;;;;;;21.02;13.57;;;;;;;;;;5093301;28;20232;-61
2022/11/21 07:49:59;;;;;;;24.73;15.70;;;;;;;;;;5093773;28;20194;-61
2022/11/21 07:52:29;;;;;;;21.52;15.35;;;;;;;;;;5093428;28;20233;-61
2022/11/21 07:54:56;;;;;;;20.67;15.70;;;;;;;;;;5093534;28;20222;-61
2022/11/21 07:57:23;;;;;;;28.13;17.40;;;;;;;;;;5093341;28;20189;-61
2022/11/21 07:59:50;;;;;;;27.85;17.70;;;;;;;;;;5093400;28;20284;-61
2022/11/21 08:02:19;;;;;;;23.95;15.63;;;;;;;;;;5093068;28;20645;-61
2022/11/21 08:04:46;;;;;;;20.25;14.10;;;;;;;;;;5093276;28;20257;-61
2022/11/21 08:07:15;;;;;;;27.08;16.15;;;;;;;;;;5093432;28;20246;-61
2022/11/21 08:09:42;;;;;;;23.02;16.85;;;;;;;;;;5093163;28;20706;-61
2022/11/21 08:12:10;;;;;;;26.23;16.42;;;;;;;;;;5093071;28;20279;-62
2022/11/21 08:14:37;;;;;;;23.88;15.95;;;;;;;;;;5093041;28;20626;-61
2022/11/21 08:17:06;;;;;;;24.45;15.75;;;;;;;;;;5093380;28;20189;-61
2022/11/21 08:19:45;;;;;;;23.58;15.23;;;;;;;;;;5093222;28;20197;-61
2022/11/21 08:22:14;;;;;;;25.45;16.60;;;;;;;;;;5093060;28;20197;-61
2022/11/21 08:24:43;;;;;;;28.13;17.55;;;;;;;;;;5093032;28;20194;-61
2022/11/21 08:27:15;;;;;;;25.00;17.92;;;;;;;;;;5092997;28;20720;-61
2022/11/21 08:29:42;;;;;;;24.20;18.40;;;;;;;;;;5093218;28;20197;-61
2022/11/21 08:32:10;;;;;;;24.75;18.73;;;;;;;;;;5092642;28;20199;-60
2022/11/21 08:34:37;;;;;;;27.65;19.05;;;;;;;;;;5092453;28;20249;-61
2022/11/21 08:37:04;;;;;;;26.60;18.67;;;;;;;;;;5078473;28;20223;-60
2022/11/21 08:39:31;;;;;;;26.90;18.80;;;;;;;;;;5072618;28;20194;-60
2022/11/21 08:42:03;;;;;;;27.17;16.50;;;;;;;;;;5072781;28;20250;-59
2022/11/21 08:44:30;;;;;;;27.45;19.60;;;;;;;;;;5077951;28;20190;-59
2022/11/21 08:46:57;;;;;;;26.25;18.25;;;;;;;;;;5076953;28;20206;-59
2022/11/21 08:49:25;;;;;;;27.45;18.77;;;;;;;;;;5081171;28;20634;-59
2022/11/21 08:51:53;;;;;;;24.35;17.08;;;;;;;;;;5082624;28;20182;-62
2022/11/21 08:54:21;;;;;;;24.08;18.35;;;;;;;;;;5085204;28;20267;-59
2022/11/21 08:56:49;;;;;;;28.10;18.58;;;;;;;;;;5092692;28;20190;-59
2022/11/21 08:59:17;;;;;;;28.10;19.80;;;;;;;;;;5092901;28;20231;-59
2022/11/21 09:01:45;;;;;;;30.17;19.80;;;;;;;;;;5092741;28;20195;-59
2022/11/21 09:04:12;;;;;;;29.70;20.50;;;;;;;;;;5092371;28;20229;-63
2022/11/21 09:06:41;;;;;;;32.10;19.65;;;;;;;;;;5081403;28;20186;-59
2022/11/21 09:09:08;;;;;;;28.17;18.23;;;;;;;;;;5080434;28;20585;-63
2022/11/21 09:11:36;;;;;;;27.70;19.23;;;;;;;;;;5092832;28;20643;-61
2022/11/21 09:19:35;;;;;;;31.27;21.85;;;;;;;;;;5088472;28;20602;-60
2022/11/21 09:22:03;;;;;;;31.08;21.13;;;;;;;;;;5094468;28;20194;-61
2022/11/21 09:24:35;;;;;;;32.88;21.85;;;;;;;;;;5089430;28;20193;-62
2022/11/21 09:27:03;;;;;;;35.03;22.73;;;;;;;;;;5096273;28;20196;-60
2022/11/21 09:29:30;;;;;;;28.63;20.95;;;;;;;;;;5089715;28;20577;-63
2022/11/21 09:31:58;;;;;;;32.47;21.48;;;;;;;;;;5090670;28;20190;-61
2022/11/21 09:34:40;;;;;;;36.10;22.08;;;;;;;;;;5093046;28;20220;-61
2022/11/21 09:37:07;;;;;;;30.80;20.45;;;;;;;;;;5086480;28;20526;-64
2022/11/21 09:39:34;;;;;;;29.10;20.40;;;;;;;;;;5075645;28;20187;-63
2022/11/21 09:42:10;;;;;;;34.05;21.90;;;;;;;;;;5075470;28;20193;-63
2022/11/21 09:44:45;;;;;;;32.65;22.02;;;;;;;;;;5074817;28;20612;-62
2022/11/21 09:47:19;;;;;;;33.80;24.00;;;;;;;;;;5080863;28;20210;-62
2022/11/21 09:49:49;;;;;;;33.67;26.17;;;;;;;;;;5094870;28;20442;-60
2022/11/21 09:52:20;;;;;;;35.15;24.80;;;;;;;;;;5086484;28;20199;-60
2022/11/21 09:54:49;;;;;;;31.60;22.88;;;;;;;;;;5076972;28;20596;-62
2022/11/21 09:57:18;;;;;;;33.75;23.23;;;;;;;;;;5075511;28;20613;-60
2022/11/21 09:59:52;;;;;;;36.60;23.15;;;;;;;;;;5075313;28;20190;-60
2022/11/21 10:02:27;;;;;;;34.28;21.80;;;;;;;;;;5075304;28;20191;-63
2022/11/21 10:04:59;;;;;;;32.38;21.58;;;;;;;;;;5075096;28;20201;-62
2022/11/21 10:07:27;;;;;;;35.67;22.80;;;;;;;;;;5075035;28;20195;-63
2022/11/21 10:10:04;;;;;;;33.65;23.08;;;;;;;;;;5075358;28;20608;-62
2022/11/21 10:12:38;;;;;;;34.45;22.95;;;;;;;;;;5078805;28;20205;-61
2022/11/21 10:15:16;;;;;;;32.67;19.92;;;;;;;;;;5074880;28;20685;-59
2022/11/21 10:18:01;;;;;;;28.13;20.60;;;;;;;;;;5073074;28;20233;-60
2022/11/21 10:20:34;;;;;;;26.63;18.60;;;;;;;;;;5075372;28;20201;-62
2022/11/21 10:23:10;;;;;;;24.92;19.33;;;;;;;;;;5075026;28;20191;-62
2022/11/21 10:25:38;;;;;;;26.23;19.00;;;;;;;;;;5073758;28;20191;-62
2022/11/21 10:28:07;;;;;;;21.23;16.35;;;;;;;;;;5074840;28;20190;-61
2022/11/21 10:30:35;;;;;;;24.65;16.70;;;;;;;;;;5075057;28;20546;-60
2022/11/21 10:33:05;;;;;;;23.45;17.52;;;;;;;;;;5074641;28;20187;-58
2022/11/21 10:35:40;;;;;;;21.45;17.00;;;;;;;;;;5074200;28;20208;-60
2022/11/21 10:38:16;;;;;;;22.98;17.17;;;;;;;;;;5074324;28;20197;-63
2022/11/21 10:40:46;;;;;;;25.92;18.63;;;;;;;;;;5074678;28;20230;-62
2022/11/21 10:46:11;;;;;;;25.42;18.55;;;;;;;;;;5074625;28;20321;-60
2022/11/21 10:48:44;;;;;;;22.60;17.98;;;;;;;;;;5074354;28;20226;-61
2022/11/21 10:51:20;;;;;;;28.02;19.02;;;;;;;;;;5074496;28;20324;-61
2022/11/21 10:56:34;;;;;;;31.42;21.05;;;;;;;;;;5073980;28;20229;-59
2022/11/21 10:59:13;;;;;;;24.13;16.63;;;;;;;;;;5074284;28;20520;-61
2022/11/21 11:01:40;;;;;;;23.88;16.65;;;;;;;;;;5074228;28;20223;-63
2022/11/21 11:04:17;;;;;;;24.40;16.48;;;;;;;;;;5074317;28;20607;-62
2022/11/21 11:06:45;;;;;;;27.17;17.60;;;;;;;;;;5074321;28;20191;-63
2022/11/21 11:09:22;;;;;;;22.83;16.60;;;;;;;;;;5074151;28;20252;-59
2022/11/21 11:11:50;;;;;;;21.33;14.88;;;;;;;;;;5073878;28;20201;-59
2022/11/21 11:14:27;;;;;;;20.65;15.68;;;;;;;;;;5074014;28;20225;-58
2022/11/21 11:16:55;;;;;;;21.42;13.55;;;;;;;;;;5073927;28;20201;-61
2022/11/21 11:19:26;;;;;;;24.23;16.67;;;;;;;;;;5073574;28;20629;-61
2022/11/21 11:21:55;;;;;;;22.45;16.48;;;;;;;;;;5073247;28;20190;-62
2022/11/21 11:24:24;;;;;;;27.27;18.42;;;;;;;;;;5073384;28;20201;-60
2022/11/21 11:26:53;;;;;;;26.58;17.10;;;;;;;;;;5073423;28;20200;-60
2022/11/21 11:29:21;;;;;;;21.95;15.75;;;;;;;;;;5073136;28;20198;-62
2022/11/21 11:31:53;;;;;;;20.45;14.48;;;;;;;;;;5073993;28;20663;-60
2022/11/21 11:34:21;;;;;;;21.52;14.82;;;;;;;;;;5073809;28;20226;-60
2022/11/21 11:36:57;;;;;;;23.58;14.43;;;;;;;;;;5077672;28;20223;-63
2022/11/21 11:39:32;;;;;;;21.27;14.00;;;;;;;;;;5093448;28;20193;-60
2022/11/21 11:47:55;;;;;;;19.15;13.68;;;;;;;;;;5093343;28;20263;-65
2022/11/21 11:50:24;;;;;;;21.27;14.07;;;;;;;;;;5093357;28;20657;-61
2022/11/21 11:52:58;;;;;;;20.95;13.80;;;;;;;;;;5093791;28;20687;-61
2022/11/21 11:55:42;;;;;;;20.02;13.35;;;;;;;;;;5093150;28;20287;-61
2022/11/21 11:58:14;;;;;;;23.10;13.63;;;;;;;;;;5093372;28;20608;-60
2022/11/21 12:00:45;;;;;;;18.45;12.80;;;;;;;;;;5093492;28;20698;-62
2022/11/21 12:03:16;;;;;;;20.65;12.82;;;;;;;;;;5093592;28;20191;-66
2022/11/21 12:05:47;;;;;;;23.23;13.75;;;;;;;;;;5093188;28;20198;-63
2022/11/21 12:08:18;;;;;;;18.98;13.25;;;;;;;;;;5093347;28;20667;-62
2022/11/21 12:13:34;;;;;;;18.38;11.93;;;;;;;;;;5073088;28;20205;-60
2022/11/21 12:16:03;;;;;;;20.42;13.48;;;;;;;;;;5072940;28;20306;-62
2022/11/21 12:18:33;;;;;;;15.88;10.77;;;;;;;;;;5073526;28;20202;-67
2022/11/21 12:21:07;;;;;;;17.02;12.23;;;;;;;;;;5073123;28;20191;-58
2022/11/21 12:23:37;;;;;;;15.82;11.55;;;;;;;;;;5072849;28;20263;-60
2022/11/21 12:26:10;;;;;;;21.52;14.32;;;;;;;;;;5072502;28;20190;-60
2022/11/21 12:28:41;;;;;;;17.85;11.73;;;;;;;;;;5072526;28;20226;-61
2022/11/21 12:31:11;;;;;;;17.95;11.63;;;;;;;;;;5073238;28;20230;-62
2022/11/21 12:33:42;;;;;;;19.90;13.45;;;;;;;;;;5072918;28;20646;-60
2022/11/21 12:36:15;;;;;;;25.63;16.30;;;;;;;;;;5072845;28;20272;-63
2022/11/21 12:38:49;;;;;;;17.58;12.15;;;;;;;;;;5072686;28;20195;-60
2022/11/21 12:44:13;;;;;;;15.20;10.60;;;;;;;;;;5072814;28;20194;-60
2022/11/21 12:46:46;;;;;;;16.08;10.00;;;;;;;;;;5082870;28;20581;-60
2022/11/21 12:55:33;;;;;;;16.88;11.10;;;;;;;;;;5086711;28;20271;-61
2022/11/21 12:58:21;;;;;;;14.55;11.00;;;;;;;;;;5087652;28;20188;-62
2022/11/21 13:00:53;;;;;;;12.80;9.35;;;;;;;;;;5083975;28;20270;-62
2022/11/21 13:03:32;;;;;;;14.02;10.35;;;;;;;;;;5076519;28;20195;-60
2022/11/21 13:05:59;;;;;;;15.70;9.68;;;;;;;;;;5077256;28;20622;-60
2022/11/21 13:08:29;;;;;;;15.70;10.80;;;;;;;;;;5080503;28;20286;-61
2022/11/21 13:11:57;;;;;;;14.50;10.02;;;;;;;;;;5076288;28;20190;-61
2022/11/21 13:13:50;;;;;;;15.18;11.48;;;;;;;;;;5081268;28;20258;-61
2022/11/21 13:16:35;;;;;;;14.88;11.25;;;;;;;;;;5076149;28;20276;-62
2022/11/21 13:19:03;;;;;;;12.65;9.88;;;;;;;;;;5076049;28;20186;-62
2022/11/21 13:21:40;;;;;;;14.45;10.32;;;;;;;;;;5080266;28;20187;-61
2022/11/21 13:24:08;;;;;;;16.98;11.68;;;;;;;;;;5093775;28;20221;-58
2022/11/21 13:26:55;;;;;;;13.25;10.00;;;;;;;;;;5096164;28;20197;-62
2022/11/21 13:29:23;;;;;;;17.33;11.93;;;;;;;;;;5096044;28;20451;-61
2022/11/21 13:31:50;;;;;;;17.58;11.00;;;;;;;;;;5096095;28;20190;-60
2022/11/21 13:34:35;;;;;;;15.77;10.63;;;;;;;;;;5096039;28;20194;-62
2022/11/21 13:37:02;;;;;;;16.30;10.90;;;;;;;;;;5095819;28;20218;-61
2022/11/21 13:39:31;;;;;;;15.30;11.75;;;;;;;;;;5095831;28;20235;-62
2022/11/21 13:44:54;;;;;;;16.58;11.25;;;;;;;;;;5095704;28;20589;-64
2022/11/21 13:47:52;;;;;;;13.45;10.20;;;;;;;;;;5095345;28;20272;-60
2022/11/21 13:50:24;;;;;;;14.77;11.00;;;;;;;;;;5095879;28;20642;-60
2022/11/21 13:52:58;;;;;;;14.20;11.45;;;;;;;;;;5095822;28;20213;-60
2022/11/21 13:55:38;;;;;;;15.55;12.13;;;;;;;;;;5095039;28;20192;-62
2022/11/21 13:58:13;;;;;;;15.93;12.55;;;;;;;;;;5095293;28;20190;-62
2022/11/21 14:00:52;;;;;;;18.45;11.68;;;;;;;;;;5095575;28;20276;-62
2022/11/21 14:03:39;;;;;;;12.65;10.65;;;;;;;;;;5095861;28;20193;-62
2022/11/21 14:06:13;;;;;;;17.90;11.95;;;;;;;;;;5095554;28;20279;-61
2022/11/21 14:08:42;;;;;;;15.40;12.38;;;;;;;;;;5095130;28;20214;-62
2022/11/21 14:11:23;;;;;;;13.65;10.70;;;;;;;;;;5095558;28;20223;-62
2022/11/21 14:13:51;;;;;;;18.10;12.25;;;;;;;;;;5095255;28;20246;-62
2022/11/21 14:16:24;;;;;;;14.13;10.45;;;;;;;;;;5095097;28;20224;-62
2022/11/21 14:18:52;;;;;;;17.98;11.63;;;;;;;;;;5095273;28;20215;-62
2022/11/21 14:21:20;;;;;;;15.30;10.93;;;;;;;;;;5095255;28;20534;-62
2022/11/21 14:23:48;;;;;;;15.27;10.90;;;;;;;;;;5095251;28;20553;-62
2022/11/21 14:26:18;;;;;;;14.02;11.25;;;;;;;;;;5095072;28;20625;-62
2022/11/21 14:28:45;;;;;;;13.80;11.02;;;;;;;;;;5095364;28;20190;-62
2022/11/21 14:31:14;;;;;;;12.55;10.05;;;;;;;;;;5095080;28;20649;-62
2022/11/21 14:33:42;;;;;;;15.52;11.93;;;;;;;;;;5094870;28;20194;-62
2022/11/21 14:36:13;;;;;;;16.48;11.63;;;;;;;;;;5095171;28;20221;-61
2022/11/21 14:38:42;;;;;;;14.38;11.65;;;;;;;;;;5094950;28;20649;-61
2022/11/21 14:41:26;;;;;;;15.98;12.50;;;;;;;;;;5094716;28;20259;-62
2022/11/21 14:44:20;;;;;;;15.68;10.85;;;;;;;;;;5094577;28;20675;-62
2022/11/21 14:46:49;;;;;;;17.50;12.10;;;;;;;;;;5069917;28;20225;-62
2022/11/21 14:49:22;;;;;;;18.17;11.65;;;;;;;;;;5094580;28;20707;-62
2022/11/21 14:51:50;;;;;;;16.60;10.90;;;;;;;;;;5094581;28;20675;-62
2022/11/21 14:54:19;;;;;;;17.95;11.45;;;;;;;;;;5094684;28;20263;-63
2022/11/21 14:56:48;;;;;;;15.23;10.85;;;;;;;;;;5094300;28;20212;-62
2022/11/21 14:59:21;;;;;;;19.40;13.32;;;;;;;;;;5094795;28;20189;-62
2022/11/21 15:01:57;;;;;;;17.73;12.90;;;;;;;;;;5094270;28;20193;-62
2022/11/21 15:04:27;;;;;;;17.83;12.70;;;;;;;;;;5094491;28;20236;-62
2022/11/21 15:06:56;;;;;;;17.40;12.35;;;;;;;;;;5094361;28;20193;-62